Observations

81.0 °F / 27.2 °C
E at 21 MPH
94%
79.3°F / 26.3 °C
29.82" (1009 mb)
10 mile(s)
clear
2020.02.26 1240 UTC

Observations

Surface


Raw METARs

2020/02/26 12:40
PKWA 261240Z AUTO 08018KT 10SM CLR 27/26 A2982 RMK AO2 T02720263

Translated METAR

Kwajalein, Bucholz AAF, Kwajalein KMR ATOL Airport, Marshall Islands (PKWA) 08-43N 167-44E 2M
Feb 26, 2020 - 07:40 AM EST / 2020.02.26 1240 UTC
Wind: from the E (080 degrees) at 21 MPH (18 KT):0
Visibility: 10 mile(s):0
Sky conditions: clear
Temperature: 81.0 F (27.2 C)
Dew Point: 79.3 F (26.3 C)
Relative Humidity: 94%
Pressure (altimeter): 29.82 in. Hg (1009 hPa)
ob: PKWA 261240Z AUTO 08018KT 10SM CLR 27/26 A2982 RMK AO2 T02720263
cycle: 12



Upper Air


Latest Skew-T

Skew T Diagram

Latest Data File